Time;durP1;ratioP1;P1;durP2;ratioP2;P2;SDS_P1;SDS_P2;PMS_P1;PMS_P2;Temp;Humidity;BMP_temperature;BMP_pressure;BME280_temperature;BME280_humidity;BME280_pressure;Samples;Min_cycle;Max_cycle;Signal;HPM_P1;HPM_P2
2021/07/30 00:02:15;;;;;;;5.10;2.28;;;;;;;16.12;61.82;100214.31;4965615;28;20039;-74
2021/07/30 00:04:40;;;;;;;6.75;2.30;;;;;;;16.11;62.45;100219.69;4964524;28;20045;-75
2021/07/30 00:07:06;;;;;;;6.70;2.35;;;;;;;16.06;61.97;100211.88;4966888;28;20425;-75
2021/07/30 00:09:31;;;;;;;6.50;2.38;;;;;;;16.01;62.81;100211.16;4965882;28;20105;-75
2021/07/30 00:11:56;;;;;;;6.03;2.78;;;;;;;15.93;62.79;100215.88;4964534;28;20031;-74
2021/07/30 00:14:22;;;;;;;5.97;2.17;;;;;;;15.86;63.51;100212.53;4966174;28;20027;-75
2021/07/30 00:16:47;;;;;;;4.47;2.30;;;;;;;15.74;62.65;100211.13;4966305;28;20441;-75
2021/07/30 00:19:12;;;;;;;6.00;2.65;;;;;;;15.68;63.83;100215.75;4964279;28;20039;-74
2021/07/30 00:21:38;;;;;;;7.72;2.88;;;;;;;15.59;64.47;100216.03;4965682;28;20039;-75
2021/07/30 00:24:03;;;;;;;4.30;2.40;;;;;;;15.57;63.94;100213.44;4966672;28;20037;-75
2021/07/30 00:26:29;;;;;;;4.20;2.03;;;;;;;15.53;63.46;100217.09;4964299;28;20035;-75
2021/07/30 00:28:54;;;;;;;7.97;2.58;;;;;;;15.53;63.56;100206.47;4965041;28;20405;-75
2021/07/30 00:31:19;;;;;;;6.57;2.67;;;;;;;15.54;63.77;100208.22;4966507;28;20162;-75
2021/07/30 00:33:44;;;;;;;5.45;2.67;;;;;;;15.49;64.54;100212.81;4965427;28;20401;-75
2021/07/30 00:36:10;;;;;;;6.95;2.40;;;;;;;15.44;64.42;100210.28;4966000;28;20405;-75
2021/07/30 00:38:35;;;;;;;4.95;2.72;;;;;;;15.40;64.88;100211.28;4962944;28;20405;-74
2021/07/30 00:41:01;;;;;;;6.82;3.05;;;;;;;15.30;65.98;100218.72;4965244;28;20528;-75
2021/07/30 00:43:27;;;;;;;7.28;2.78;;;;;;;15.20;66.07;100214.59;4966487;28;20138;-74
2021/07/30 00:45:53;;;;;;;7.55;2.50;;;;;;;15.18;66.37;100211.09;4964174;28;20114;-75
2021/07/30 00:48:20;;;;;;;7.00;2.55;;;;;;;15.12;66.62;100212.16;4964354;28;20045;-75
2021/07/30 00:50:46;;;;;;;4.72;2.30;;;;;;;15.02;66.79;100215.13;4965413;28;20082;-74
2021/07/30 00:53:12;;;;;;;5.40;2.47;;;;;;;14.87;68.04;100212.00;4965189;28;20098;-74
2021/07/30 00:55:38;;;;;;;5.05;2.78;;;;;;;14.80;67.53;100212.22;4963592;28;20062;-74
2021/07/30 00:58:03;;;;;;;5.53;2.60;;;;;;;14.77;67.75;100209.66;4965504;28;20413;-74
2021/07/30 01:00:29;;;;;;;5.68;2.53;;;;;;;14.69;68.61;100212.53;4965618;28;20039;-74
2021/07/30 01:02:54;;;;;;;6.82;2.80;;;;;;;14.68;68.60;100206.34;4963698;28;20039;-74
2021/07/30 01:05:20;;;;;;;6.65;2.85;;;;;;;14.67;69.09;100207.28;4964408;28;20408;-75
2021/07/30 01:07:45;;;;;;;5.40;3.00;;;;;;;14.62;69.62;100203.00;4966120;28;20037;-74
2021/07/30 01:10:11;;;;;;;5.60;3.15;;;;;;;14.59;69.54;100213.69;4963830;28;20059;-74
2021/07/30 01:12:36;;;;;;;6.18;3.17;;;;;;;14.57;69.01;100212.88;4969149;28;20576;-74
2021/07/30 01:15:03;;;;;;;6.53;3.03;;;;;;;14.51;69.73;100220.97;4963229;28;20039;-74
2021/07/30 01:17:28;;;;;;;4.45;3.05;;;;;;;14.51;69.57;100213.00;4964773;28;20043;-75
2021/07/30 01:19:54;;;;;;;5.80;3.50;;;;;;;14.52;69.65;100220.06;4965415;28;20051;-74
2021/07/30 01:22:26;;;;;;;4.75;3.15;;;;;;;14.56;69.75;100217.28;4964034;28;20030;-74
2021/07/30 01:24:52;;;;;;;8.50;3.50;;;;;;;14.58;69.03;100226.09;4968667;28;20043;-74
2021/07/30 01:27:17;;;;;;;6.18;3.03;;;;;;;14.57;69.21;100218.19;4972250;28;20030;-74
2021/07/30 01:29:43;;;;;;;4.88;2.90;;;;;;;14.58;68.91;100222.56;4966675;28;20034;-74
2021/07/30 01:32:08;;;;;;;4.93;3.17;;;;;;;14.59;68.79;100219.00;4963120;28;20050;-74
2021/07/30 01:34:33;;;;;;;8.32;3.65;;;;;;;14.58;69.06;100218.13;4966277;28;20038;-75
2021/07/30 01:36:59;;;;;;;5.97;3.30;;;;;;;14.65;68.72;100218.84;4963239;28;20454;-74
2021/07/30 01:39:24;;;;;;;6.82;2.92;;;;;;;14.66;68.76;100213.47;4965082;28;20401;-75
2021/07/30 01:41:49;;;;;;;5.75;2.90;;;;;;;14.64;68.44;100217.09;4964230;28;20278;-74
2021/07/30 01:44:15;;;;;;;6.95;3.40;;;;;;;14.65;68.69;100209.09;4965849;28;20122;-75
2021/07/30 01:46:40;;;;;;;6.05;3.13;;;;;;;14.67;68.42;100209.03;4963302;28;20054;-75
2021/07/30 01:49:06;;;;;;;6.55;3.30;;;;;;;14.73;68.58;100214.19;4929702;28;20039;-74
2021/07/30 01:51:31;;;;;;;6.22;2.83;;;;;;;14.77;68.00;100210.50;4964958;28;20054;-74
2021/07/30 01:53:56;;;;;;;7.03;2.90;;;;;;;14.80;67.70;100205.13;4963714;28;20047;-75
2021/07/30 01:56:22;;;;;;;6.63;3.30;;;;;;;14.85;67.87;100218.25;4962444;28;20045;-75
2021/07/30 01:58:47;;;;;;;6.50;3.42;;;;;;;14.88;68.07;100212.84;4963451;28;20038;-75
2021/07/30 02:01:12;;;;;;;5.18;2.45;;;;;;;14.94;67.52;100212.69;4980106;23;20011;-77
2021/07/30 02:03:38;;;;;;;5.53;3.10;;;;;;;15.00;67.17;100214.31;4963785;28;20042;-76
2021/07/30 02:06:07;;;;;;;6.43;2.85;;;;;;;15.04;67.05;100216.84;4962048;28;20051;-77
2021/07/30 02:08:33;;;;;;;4.55;2.70;;;;;;;15.07;66.98;100216.72;4964490;28;20540;-77
2021/07/30 02:10:59;;;;;;;5.28;3.42;;;;;;;15.06;66.71;100209.69;4962054;28;20030;-77
2021/07/30 02:16:08;;;;;;;6.68;2.92;;;;;;;15.07;67.08;100219.41;4963307;28;20031;-76
2021/07/30 02:18:33;;;;;;;5.03;3.10;;;;;;;15.09;67.38;100216.66;4964055;28;20389;-77
2021/07/30 02:20:59;;;;;;;4.82;2.80;;;;;;;15.04;67.79;100221.28;4962297;28;20512;-77
2021/07/30 02:23:24;;;;;;;6.45;2.63;;;;;;;15.04;67.73;100218.63;4965049;28;20499;-77
2021/07/30 02:25:49;;;;;;;6.55;3.28;;;;;;;15.01;67.40;100213.38;4956560;28;20131;-77
2021/07/30 02:28:14;;;;;;;6.72;3.10;;;;;;;15.01;67.55;100213.38;4961528;28;20094;-77
2021/07/30 02:30:40;;;;;;;7.88;2.85;;;;;;;15.05;66.95;100215.03;4964084;28;20051;-77
2021/07/30 02:33:05;;;;;;;8.07;3.35;;;;;;;15.09;67.35;100222.00;4963402;28;20050;-77
2021/07/30 02:35:30;;;;;;;4.45;2.70;;;;;;;15.12;67.37;100216.59;4963279;28;20042;-77
2021/07/30 02:37:56;;;;;;;6.25;2.78;;;;;;;15.16;66.94;100217.38;4962259;28;20031;-77
2021/07/30 02:40:21;;;;;;;5.35;2.50;;;;;;;15.20;66.77;100217.25;4963764;28;20046;-77
2021/07/30 02:42:46;;;;;;;4.65;2.72;;;;;;;15.20;66.81;100219.91;4964627;28;20045;-76
2021/07/30 02:45:12;;;;;;;4.65;3.00;;;;;;;15.17;66.84;100220.00;4960720;28;20038;-77
2021/07/30 02:47:37;;;;;;;5.03;2.65;;;;;;;15.16;67.15;100212.06;4962144;28;20039;-77
2021/07/30 02:50:03;;;;;;;4.28;2.70;;;;;;;15.11;67.02;100215.72;4963086;28;20042;-77
2021/07/30 02:52:30;;;;;;;6.53;2.70;;;;;;;15.12;67.48;100216.59;4962826;28;20081;-76
2021/07/30 02:54:55;;;;;;;6.70;3.05;;;;;;;15.10;66.68;100213.13;4962137;28;20094;-77
2021/07/30 02:57:20;;;;;;;5.45;2.90;;;;;;;15.10;66.67;100218.44;4964012;28;20031;-78
2021/07/30 02:59:46;;;;;;;4.93;2.90;;;;;;;15.09;66.75;100217.56;4961460;28;20505;-77
2021/07/30 03:02:11;;;;;;;5.75;3.30;;;;;;;15.06;66.35;100216.78;4947036;28;20050;-77
2021/07/30 03:04:36;;;;;;;5.05;3.45;;;;;;;15.01;65.90;100214.28;4961504;28;20557;-77
2021/07/30 03:07:02;;;;;;;5.60;3.10;;;;;;;14.97;67.02;100217.06;4963628;28;20087;-77
2021/07/30 03:09:27;;;;;;;5.05;2.95;;;;;;;14.84;67.67;100221.84;4962805;28;20031;-77
2021/07/30 03:11:52;;;;;;;5.55;3.30;;;;;;;14.77;68.31;100214.97;4962288;28;20067;-77
2021/07/30 03:14:18;;;;;;;5.28;2.97;;;;;;;14.62;69.08;100221.59;4968983;28;20066;-77
2021/07/30 03:16:43;;;;;;;6.93;3.10;;;;;;;14.47;69.49;100218.41;4971964;28;20106;-77
2021/07/30 03:19:08;;;;;;;5.85;3.25;;;;;;;14.43;69.54;100219.38;4971015;28;20035;-77
2021/07/30 03:21:34;;;;;;;7.70;3.28;;;;;;;14.43;69.28;100214.06;4967756;28;20085;-77
2021/07/30 03:23:59;;;;;;;8.60;3.53;;;;;;;14.43;69.73;100216.72;4970170;28;20050;-77
2021/07/30 03:26:24;;;;;;;6.05;3.20;;;;;;;14.45;69.19;100212.25;4968650;28;20035;-77
2021/07/30 03:28:50;;;;;;;6.22;3.38;;;;;;;14.50;69.59;100216.56;4968935;28;20121;-77
2021/07/30 03:31:15;;;;;;;7.97;3.75;;;;;;;14.51;69.47;100215.66;4969802;28;20030;-77
2021/07/30 03:33:40;;;;;;;6.18;2.92;;;;;;;14.50;69.36;100214.78;4967768;28;20118;-77
2021/07/30 03:36:06;;;;;;;7.85;3.80;;;;;;;14.39;69.65;100220.38;4970295;28;20034;-77
2021/07/30 03:38:31;;;;;;;5.55;3.00;;;;;;;14.35;69.68;100220.50;4967096;28;20115;-77
2021/07/30 03:41:01;;;;;;;4.47;2.85;;;;;;;14.33;69.62;100217.91;4969745;28;20132;-77
2021/07/30 03:43:27;;;;;;;5.18;3.30;;;;;;;14.33;69.59;100219.66;4967877;28;20035;-77
2021/07/30 03:45:52;;;;;;;6.45;3.55;;;;;;;14.33;69.81;100215.25;4951869;28;20501;-77
2021/07/30 03:48:17;;;;;;;6.38;3.75;;;;;;;14.37;69.31;100226.66;4969318;28;20090;-77
2021/07/30 03:50:42;;;;;;;4.95;3.42;;;;;;;14.38;69.92;100223.06;4969295;28;20509;-77
2021/07/30 03:53:08;;;;;;;5.15;3.30;;;;;;;14.40;69.44;100216.81;4971806;28;20043;-77
2021/07/30 03:55:33;;;;;;;5.32;3.60;;;;;;;14.44;68.84;100213.19;4969204;28;20058;-77
2021/07/30 03:57:59;;;;;;;6.38;3.78;;;;;;;14.52;69.13;100212.97;4967424;28;20031;-77
2021/07/30 04:00:24;;;;;;;7.45;4.22;;;;;;;14.58;68.51;100211.97;4971894;28;20039;-77
2021/07/30 04:02:49;;;;;;;6.00;3.83;;;;;;;14.63;69.13;100218.00;4969107;28;20039;-77
2021/07/30 04:05:15;;;;;;;5.55;3.65;;;;;;;14.61;68.55;100219.84;4968255;28;20049;-77
2021/07/30 04:07:40;;;;;;;5.65;3.33;;;;;;;14.59;68.92;100214.59;4969976;28;20047;-77
2021/07/30 04:10:05;;;;;;;5.72;3.03;;;;;;;14.63;68.55;100216.22;4968224;28;20088;-77
2021/07/30 04:12:31;;;;;;;6.32;3.80;;;;;;;14.66;68.11;100216.13;4967416;28;20170;-77
2021/07/30 04:14:56;;;;;;;8.57;4.95;;;;;;;14.71;68.31;100221.31;4970504;28;20038;-77
2021/07/30 04:17:21;;;;;;;8.80;4.53;;;;;;;14.74;68.16;100223.03;4972567;28;20035;-78
2021/07/30 04:19:47;;;;;;;5.25;3.75;;;;;;;14.79;68.27;100227.28;4970739;28;20104;-77
2021/07/30 04:22:13;;;;;;;7.32;3.65;;;;;;;14.80;68.93;100226.38;4954327;28;20501;-77
2021/07/30 04:24:39;;;;;;;5.50;3.20;;;;;;;14.85;68.36;100224.44;4968383;28;20038;-77
2021/07/30 04:27:05;;;;;;;5.60;3.15;;;;;;;14.92;68.26;100232.25;4965699;28;20035;-78
2021/07/30 04:29:31;;;;;;;6.00;3.58;;;;;;;14.93;68.03;100226.88;4967101;28;20062;-78
2021/07/30 04:31:56;;;;;;;5.80;3.50;;;;;;;14.93;67.97;100226.88;4964604;28;20031;-77
2021/07/30 04:34:21;;;;;;;5.68;3.50;;;;;;;14.97;68.24;100227.69;4967477;28;20518;-78
2021/07/30 04:36:46;;;;;;;6.45;3.97;;;;;;;15.03;67.85;100232.81;4964259;28;20516;-77
2021/07/30 04:39:12;;;;;;;6.32;4.15;;;;;;;15.10;67.51;100229.06;4966156;28;20050;-77
2021/07/30 04:41:37;;;;;;;7.13;3.50;;;;;;;15.16;67.76;100234.19;4967129;28;20039;-77
2021/07/30 04:44:03;;;;;;;5.15;3.17;;;;;;;15.26;67.06;100235.66;4965434;28;20134;-77
2021/07/30 04:46:28;;;;;;;5.03;3.42;;;;;;;15.34;66.91;100238.09;4947789;28;20050;-77
2021/07/30 04:48:53;;;;;;;5.47;3.17;;;;;;;15.41;66.92;100238.78;4974320;28;20031;-77
2021/07/30 04:51:19;;;;;;;6.13;3.10;;;;;;;15.49;66.99;100231.44;4962998;28;20129;-77
2021/07/30 04:53:46;;;;;;;5.03;3.53;;;;;;;15.51;66.79;100232.22;4966443;28;20043;-77
2021/07/30 04:56:20;;;;;;;7.78;3.60;;;;;;;15.64;66.58;100233.63;4967139;28;20030;-77
2021/07/30 04:58:46;;;;;;;6.07;3.85;;;;;;;15.72;66.26;100239.59;4963472;28;20118;-77
2021/07/30 05:01:12;;;;;;;11.35;7.60;;;;;;;15.82;66.54;100237.47;4948891;28;20098;-77
2021/07/30 05:03:37;;;;;;;7.70;4.40;;;;;;;15.94;66.05;100238.91;4964127;28;20506;-77
2021/07/30 05:06:19;;;;;;;6.50;3.95;;;;;;;16.04;66.15;100234.16;4969723;28;20039;-77
2021/07/30 05:08:45;;;;;;;5.75;3.70;;;;;;;16.11;65.71;100225.91;4963328;28;20046;-77
2021/07/30 05:11:11;;;;;;;7.00;3.78;;;;;;;16.15;65.78;100229.31;4966436;28;20034;-77
2021/07/30 05:13:41;;;;;;;6.30;3.60;;;;;;;16.22;65.61;100222.88;4949622;28;20047;-77
2021/07/30 05:16:08;;;;;;;7.63;3.80;;;;;;;16.30;65.51;100231.47;4966009;28;20042;-77
2021/07/30 05:18:34;;;;;;;5.82;3.83;;;;;;;16.37;65.49;100234.75;4963824;28;20142;-77
2021/07/30 05:21:03;;;;;;;7.20;3.90;;;;;;;16.44;65.71;100230.97;4967179;28;20121;-77
2021/07/30 05:23:28;;;;;;;6.40;3.70;;;;;;;16.52;65.46;100231.56;4971751;28;20445;-77
2021/07/30 05:25:54;;;;;;;5.55;3.25;;;;;;;16.60;64.94;100229.50;4965281;28;20046;-77
2021/07/30 05:28:19;;;;;;;5.97;3.22;;;;;;;16.62;64.86;100226.78;4970054;28;20038;-77
2021/07/30 05:30:45;;;;;;;4.15;2.90;;;;;;;16.75;64.43;100227.22;4966879;28;20038;-77
2021/07/30 05:33:10;;;;;;;6.53;3.00;;;;;;;16.83;64.61;100231.38;4962817;28;20065;-77
2021/07/30 05:35:35;;;;;;;6.50;3.65;;;;;;;16.95;64.03;100238.06;4969317;28;20035;-77
2021/07/30 05:38:01;;;;;;;7.43;3.53;;;;;;;17.07;63.72;100234.91;4946478;28;20122;-77
2021/07/30 05:40:26;;;;;;;6.03;3.65;;;;;;;17.21;63.34;100236.19;4955804;28;20451;-77
2021/07/30 05:42:51;;;;;;;7.53;3.97;;;;;;;17.29;63.06;100234.09;4964004;28;20047;-77
2021/07/30 05:45:17;;;;;;;7.65;4.13;;;;;;;17.35;63.23;100233.88;4962010;28;20039;-77
2021/07/30 05:47:42;;;;;;;9.02;4.10;;;;;;;17.49;62.72;100225.31;4962907;28;20031;-77
2021/07/30 05:50:08;;;;;;;4.55;2.90;;;;;;;17.61;62.79;100230.19;4967027;28;20035;-77
2021/07/30 05:52:34;;;;;;;6.07;3.00;;;;;;;17.75;62.37;100229.63;4964085;28;20115;-77
2021/07/30 05:54:59;;;;;;;6.43;3.25;;;;;;;17.85;62.02;100228.34;4951627;28;20034;-77
2021/07/30 05:57:25;;;;;;;6.40;3.70;;;;;;;17.92;61.48;100229.84;4965328;28;20549;-77
2021/07/30 05:59:50;;;;;;;5.90;3.17;;;;;;;18.08;61.42;100229.22;4965628;28;20086;-77
2021/07/30 06:02:15;;;;;;;7.97;3.05;;;;;;;18.15;60.77;100220.84;4946536;28;20038;-77
2021/07/30 06:04:42;;;;;;;6.80;3.60;;;;;;;18.24;60.47;100234.75;4968529;28;20057;-77
2021/07/30 06:07:07;;;;;;;7.65;3.30;;;;;;;18.34;59.58;100225.44;4962711;28;20082;-77
2021/07/30 06:09:32;;;;;;;5.53;2.90;;;;;;;18.46;59.41;100224.88;4965425;28;20053;-77
2021/07/30 06:11:58;;;;;;;7.65;3.00;;;;;;;18.52;58.35;100229.97;4961931;28;20039;-77
2021/07/30 06:14:23;;;;;;;6.30;2.88;;;;;;;18.63;58.11;100221.47;4964671;28;20045;-76
2021/07/30 06:16:48;;;;;;;4.57;3.05;;;;;;;18.73;57.36;100221.91;4962823;28;20049;-77
2021/07/30 06:19:14;;;;;;;4.70;2.50;;;;;;;18.85;57.19;100223.22;4963694;28;20039;-77
2021/07/30 06:21:39;;;;;;;6.10;3.40;;;;;;;18.96;57.20;100212.88;4963676;28;20077;-76
2021/07/30 06:24:05;;;;;;;5.43;2.90;;;;;;;19.10;56.95;100215.81;4962586;28;20615;-77
2021/07/30 06:26:30;;;;;;;7.15;2.50;;;;;;;19.24;56.48;100218.69;4964522;28;20065;-77
2021/07/30 06:28:56;;;;;;;6.60;3.20;;;;;;;19.35;56.66;100214.66;4961668;28;20087;-77
2021/07/30 06:31:21;;;;;;;4.82;2.80;;;;;;;19.41;55.70;100214.34;4964954;28;20045;-77
2021/07/30 06:33:46;;;;;;;4.80;2.55;;;;;;;19.52;55.82;100217.41;4963305;28;20038;-77
2021/07/30 06:36:15;;;;;;;6.30;2.42;;;;;;;19.66;55.47;100214.94;4962798;28;20043;-77
2021/07/30 06:38:40;;;;;;;5.43;2.10;;;;;;;19.73;54.87;100214.63;4963653;28;20043;-77
2021/07/30 06:41:06;;;;;;;4.30;2.40;;;;;;;19.79;54.69;100203.63;4963344;28;20041;-77
2021/07/30 06:43:31;;;;;;;5.38;3.03;;;;;;;19.85;53.95;100211.34;4962492;28;20051;-77
2021/07/30 06:46:00;;;;;;;4.55;1.98;;;;;;;19.95;54.07;100211.78;4964507;28;20039;-77
2021/07/30 06:48:26;;;;;;;3.60;1.67;;;;;;;19.91;51.65;100200.31;4961670;28;20093;-77
2021/07/30 06:50:53;;;;;;;4.65;2.00;;;;;;;20.06;51.48;100202.22;4965088;28;20489;-77
2021/07/30 06:53:18;;;;;;;4.82;1.83;;;;;;;20.06;51.68;100196.88;4961718;28;20031;-77
2021/07/30 06:55:44;;;;;;;3.63;1.38;;;;;;;20.11;51.11;100192.16;4964433;28;20489;-77
2021/07/30 06:58:09;;;;;;;7.28;2.40;;;;;;;20.19;51.63;100189.09;4945749;28;20046;-77
2021/07/30 07:00:34;;;;;;;4.43;2.30;;;;;;;20.32;50.79;100192.00;4961935;28;20038;-77
2021/07/30 07:03:02;;;;;;;4.00;1.75;;;;;;;20.43;50.81;100188.75;4965885;28;20046;-77
2021/07/30 07:05:28;;;;;;;5.22;2.10;;;;;;;20.51;51.44;100189.22;4965452;28;20574;-77
2021/07/30 07:07:53;;;;;;;4.82;2.30;;;;;;;20.60;50.44;100185.25;4968305;28;20093;-77
2021/07/30 07:10:18;;;;;;;5.18;1.75;;;;;;;20.70;49.88;100186.47;4959856;28;20070;-77
2021/07/30 07:12:43;;;;;;;6.00;2.25;;;;;;;20.72;50.53;100179.19;4966952;28;20066;-77
2021/07/30 07:15:09;;;;;;;9.65;2.00;;;;;;;20.86;49.59;100182.00;4965243;28;20039;-76
2021/07/30 07:17:35;;;;;;;6.80;2.30;;;;;;;20.80;49.78;100176.97;4963525;28;20051;-77
2021/07/30 07:20:00;;;;;;;4.38;1.92;;;;;;;20.96;49.32;100185.94;4962682;28;20038;-77
2021/07/30 07:22:26;;;;;;;7.40;2.20;;;;;;;21.06;49.21;100182.72;4962638;28;20051;-77
2021/07/30 07:24:51;;;;;;;7.63;2.05;;;;;;;21.11;48.36;100184.19;4949755;28;20482;-77
2021/07/30 07:27:16;;;;;;;8.00;1.92;;;;;;;21.21;48.24;100184.56;4967986;28;20045;-77
2021/07/30 07:29:42;;;;;;;4.75;1.77;;;;;;;21.29;48.45;100176.94;4964498;28;20126;-77
2021/07/30 07:32:07;;;;;;;5.63;2.15;;;;;;;21.38;48.54;100176.47;4964834;28;20035;-77
2021/07/30 07:34:33;;;;;;;4.95;1.60;;;;;;;21.51;47.40;100173.06;4963689;28;20108;-77
2021/07/30 07:36:58;;;;;;;4.82;1.80;;;;;;;21.48;46.55;100182.16;4962227;28;20093;-77
2021/07/30 07:39:23;;;;;;;3.65;1.60;;;;;;;21.54;46.40;100170.22;4962627;28;20036;-77
2021/07/30 07:41:49;;;;;;;6.00;1.60;;;;;;;21.51;45.91;100173.06;4963224;28;20045;-77
2021/07/30 07:44:17;;;;;;;7.20;2.55;;;;;;;21.56;47.01;100165.63;4961555;28;20031;-77
2021/07/30 07:46:44;;;;;;;5.70;2.03;;;;;;;21.67;47.36;100166.75;4964439;28;20089;-77
2021/07/30 07:49:10;;;;;;;6.05;1.98;;;;;;;21.71;45.56;100159.38;4961662;28;20039;-77
2021/07/30 07:51:36;;;;;;;4.30;2.10;;;;;;;21.84;45.68;100155.00;4964847;28;20065;-77
2021/07/30 07:54:04;;;;;;;5.85;2.10;;;;;;;21.85;45.21;100156.75;4961530;28;20114;-78
2021/07/30 07:56:30;;;;;;;5.13;2.13;;;;;;;21.93;45.83;100156.31;4964346;28;20038;-77
2021/07/30 07:58:55;;;;;;;5.40;1.90;;;;;;;22.04;44.49;100152.97;4962287;28;20177;-77
2021/07/30 08:01:20;;;;;;;8.00;2.45;;;;;;;22.07;44.97;100144.72;4966037;28;20039;-78
2021/07/30 08:03:46;;;;;;;4.22;1.48;;;;;;;22.23;45.87;100150.06;4967284;28;20053;-78
2021/07/30 08:06:19;;;;;;;5.93;2.15;;;;;;;22.28;44.89;100143.44;4961450;28;20039;-77
2021/07/30 08:08:45;;;;;;;5.65;2.25;;;;;;;22.39;44.10;100150.00;4968724;28;20122;-78
2021/07/30 08:11:47;;;;;;;4.75;1.65;;;;;;;22.49;43.87;100146.66;5051420;23;20047;-84
2021/07/30 08:18:22;;;;;;;8.95;2.55;;;;;;;22.38;43.96;100148.28;4927815;28;20160;-84
2021/07/30 08:22:01;;;;;;;4.10;1.85;;;;;;;22.37;43.09;100133.94;4989427;28;20502;-84
2021/07/30 08:25:31;;;;;;;;;;;;;;;;;;;;;
2021/07/30 08:35:03;;;;;;;5.15;1.50;;;;;;;22.87;42.45;100140.69;5033878;22;20468;-84
2021/07/30 08:49:43;;;;;;;5.38;1.73;;;;;;;23.41;42.51;100126.47;4865722;29;20068;-84
2021/07/30 08:53:01;;;;;;;;;;;;;;;;;;;;;
2021/07/30 08:55:55;;;;;;;4.05;1.67;;;;;;;23.75;40.20;100127.81;4853165;29;20133;-84
2021/07/30 08:59:22;;;;;;;4.35;1.52;;;;;;;23.91;39.93;100134.88;4866925;29;20048;-85
2021/07/30 09:02:56;;;;;;;4.82;2.00;;;;;;;23.80;38.72;100133.75;4987111;23;20808;-84
2021/07/30 09:05:33;;;;;;;3.92;1.50;;;;;;;24.16;38.66;100134.06;4968213;28;20039;-85
2021/07/30 09:08:40;;;;;;;;;;;;;;;;;;;;;
2021/07/30 09:37:38;;;;;;;4.47;1.60;;;;;;;24.71;37.35;100096.00;4917565;29;20094;-85
2021/07/30 09:40:18;;;;;;;3.35;1.50;;;;;;;24.44;37.22;100097.91;4949959;28;20036;-85
2021/07/30 09:42:43;;;;;;;5.13;1.38;;;;;;;24.66;37.62;100105.41;4957899;29;20035;-85
2021/07/30 09:45:13;;;;;;;6.20;1.75;;;;;;;24.73;38.39;100106.66;4952801;29;20035;-84
2021/07/30 09:47:49;;;;;;;4.40;1.65;;;;;;;24.94;36.35;100088.03;4955841;29;20027;-85
2021/07/30 09:53:01;;;;;;;;;;;;;;;25.14;36.01;100100.09;4991066;23;20058;-84
2021/07/30 09:55:36;;;;;;;3.90;1.60;;;;;;;25.23;36.30;100095.88;4969051;28;20002;-84
2021/07/30 09:58:03;;;;;;;5.88;2.28;;;;;;;25.57;36.21;100088.81;5004740;28;20040;-86
2021/07/30 10:00:30;;;;;;;5.82;1.90;;;;;;;25.59;35.63;100086.84;4997479;28;20449;-85
2021/07/30 10:02:56;;;;;;;4.40;1.50;;;;;;;25.69;36.13;100090.59;4976125;28;20038;-85
2021/07/30 10:05:23;;;;;;;3.28;1.35;;;;;;;25.65;35.58;100080.13;4976295;28;20118;-82
2021/07/30 10:07:51;;;;;;;3.28;1.70;;;;;;;25.61;35.24;100084.91;4955135;28;20030;-84
2021/07/30 10:12:51;;;;;;;5.68;1.83;;;;;;;25.41;34.88;100090.94;4994895;28;20035;-84
2021/07/30 10:15:17;;;;;;;4.97;1.33;;;;;;;25.14;36.82;100086.59;4981845;28;20034;-85
2021/07/30 10:17:44;;;;;;;2.90;1.35;;;;;;;25.13;37.09;100082.19;4997879;28;20075;-85
2021/07/30 10:20:11;;;;;;;3.83;1.48;;;;;;;25.13;36.47;100088.44;4994038;28;20097;-85
2021/07/30 10:22:55;;;;;;;4.95;2.05;;;;;;;25.16;35.60;100079.28;4993785;28;20133;-85
2021/07/30 10:25:30;;;;;;;4.90;2.00;;;;;;;25.17;36.05;100074.75;4993595;28;20057;-85
2021/07/30 10:28:00;;;;;;;7.53;1.85;;;;;;;25.36;36.26;100062.47;4959837;28;20053;-85
2021/07/30 10:30:25;;;;;;;6.10;2.08;;;;;;;25.61;36.47;100068.69;4977994;28;20038;-86
2021/07/30 10:32:59;;;;;;;3.88;1.50;;;;;;;26.01;35.65;100060.22;4995542;28;20030;-85
2021/07/30 10:35:27;;;;;;;2.45;1.58;;;;;;;26.22;35.19;100049.56;4993367;28;20489;-84
2021/07/30 10:38:28;;;;;;;4.85;1.65;;;;;;;26.05;35.17;100048.22;4988842;28;20457;-85
2021/07/30 10:41:06;;;;;;;6.70;1.85;;;;;;;25.92;35.85;100044.75;4914876;29;20539;-86
2021/07/30 10:43:52;;;;;;;4.38;2.17;;;;;;;25.94;35.92;100043.66;4968928;28;20251;-85
2021/07/30 10:46:21;;;;;;;7.55;2.17;;;;;;;26.14;34.88;100039.34;4966626;28;20034;-84
2021/07/30 10:48:47;;;;;;;4.15;2.05;;;;;;;26.14;35.20;100039.34;4969062;28;20047;-85
2021/07/30 10:51:21;;;;;;;3.75;1.80;;;;;;;26.12;34.08;100056.69;5002719;28;20380;-85
2021/07/30 10:53:52;;;;;;;5.60;1.77;;;;;;;25.65;35.17;100045.88;4972900;28;20070;-85
2021/07/30 10:56:17;;;;;;;4.47;2.10;;;;;;;25.86;35.92;100035.28;4997252;28;20049;-86
2021/07/30 10:58:43;;;;;;;7.30;1.88;;;;;;;26.35;35.10;100041.34;4963496;28;20038;-86
2021/07/30 11:01:12;;;;;;;6.70;2.40;;;;;;;26.85;34.84;100028.28;4965164;28;20081;-85
2021/07/30 11:03:53;;;;;;;3.65;1.50;;;;;;;27.29;34.49;100027.34;4985071;28;20034;-85
2021/07/30 11:06:25;;;;;;;5.88;1.95;;;;;;;27.04;33.95;100030.38;4995893;28;20045;-86
2021/07/30 11:11:45;;;;;;;6.53;2.00;;;;;;;27.01;33.23;100014.34;5018883;23;20429;-85
2021/07/30 11:14:13;;;;;;;5.00;1.60;;;;;;;27.02;33.18;100008.81;4976085;28;20050;-86
2021/07/30 11:16:56;;;;;;;5.28;1.65;;;;;;;27.13;34.26;100016.03;4977148;28;20038;-85
2021/07/30 11:19:43;;;;;;;5.28;2.55;;;;;;;27.02;34.17;100011.53;4994365;28;20094;-86
2021/07/30 11:22:27;;;;;;;3.40;1.77;;;;;;;27.18;33.41;100018.41;4964657;28;20034;-85
2021/07/30 11:24:52;;;;;;;6.20;1.70;;;;;;;27.33;33.53;100017.13;4978021;28;20066;-86
2021/07/30 11:27:24;;;;;;;4.13;1.70;;;;;;;27.33;32.46;100006.28;4974849;28;20041;-86
2021/07/30 11:29:50;;;;;;;;;;;;;;;26.77;33.64;100014.53;4960258;28;20537;-86
2021/07/30 11:32:17;;;;;;;7.53;3.28;;;;;;;26.97;33.98;99997.50;4976276;28;19918;-85
2021/07/30 11:35:12;;;;;;;8.27;1.63;;;;;;;26.91;34.09;100000.72;4962855;28;20039;-86
2021/07/30 11:37:53;;;;;;;;;;;;;;;;;;;;;
2021/07/30 11:41:23;;;;;;;3.97;2.00;;;;;;;26.77;34.89;99993.72;4982768;28;20062;-86
2021/07/30 11:44:01;;;;;;;3.55;1.70;;;;;;;27.18;34.08;99985.91;4967126;28;20113;-86
2021/07/30 11:46:31;;;;;;;5.88;1.80;;;;;;;27.59;33.02;99985.09;4975402;28;20094;-85
2021/07/30 11:48:57;;;;;;;5.10;2.13;;;;;;;27.69;33.34;99977.00;4971334;28;20137;-86
2021/07/30 11:51:23;;;;;;;5.18;2.55;;;;;;;28.09;31.98;99987.97;4980329;28;20034;-86
2021/07/30 11:53:50;;;;;;;4.53;2.33;;;;;;;28.08;31.57;99979.97;4978212;28;20042;-85
2021/07/30 11:56:19;;;;;;;4.65;1.80;;;;;;;27.60;32.18;99973.25;4980118;28;20070;-85
2021/07/30 11:58:58;;;;;;;3.42;1.85;;;;;;;27.64;32.45;99971.13;4979906;28;20532;-86
2021/07/30 12:01:29;;;;;;;4.00;1.70;;;;;;;27.48;32.52;99961.63;4983021;28;20039;-86
2021/07/30 12:04:11;;;;;;;3.70;1.45;;;;;;;27.30;33.01;99958.63;4970250;28;20105;-86
2021/07/30 12:06:46;;;;;;;3.75;1.75;;;;;;;27.80;32.90;99966.09;4983014;28;20046;-86
2021/07/30 12:09:14;;;;;;;4.63;1.80;;;;;;;28.48;31.65;99962.88;4986889;28;20084;-85
2021/07/30 12:11:43;;;;;;;4.97;2.20;;;;;;;28.45;31.68;99957.72;4985538;28;20043;-86
2021/07/30 12:14:10;;;;;;;4.82;2.00;;;;;;;28.59;31.24;99954.63;4984936;28;20039;-88
2021/07/30 12:16:37;;;;;;;5.22;2.00;;;;;;;28.76;31.17;99951.22;4956829;28;20089;-86
2021/07/30 12:19:02;;;;;;;3.60;1.67;;;;;;;28.87;31.25;99946.66;4971948;28;20102;-85
2021/07/30 12:21:27;;;;;;;3.83;2.00;;;;;;;29.14;30.24;99940.59;4983497;28;20678;-88
2021/07/30 12:24:04;;;;;;;5.55;2.10;;;;;;;29.70;29.52;99937.94;4988822;28;20062;-88
2021/07/30 12:26:32;;;;;;;4.47;1.70;;;;;;;29.61;30.56;99940.69;4983322;28;20101;-84
2021/07/30 12:28:57;;;;;;;4.45;1.75;;;;;;;29.63;30.05;99938.66;4981371;28;20031;-86
2021/07/30 12:31:23;;;;;;;3.05;1.60;;;;;;;30.06;28.97;99938.13;4982458;28;20022;-87
2021/07/30 12:33:48;;;;;;;4.15;1.80;;;;;;;30.41;29.09;99931.09;4983465;28;20540;-87
2021/07/30 12:36:15;;;;;;;4.18;2.00;;;;;;;30.58;28.07;99933.00;4984236;28;20030;-87
2021/07/30 12:38:57;;;;;;;3.72;1.70;;;;;;;30.95;28.60;99923.91;4982671;28;20039;-85
2021/07/30 12:41:25;;;;;;;5.57;2.08;;;;;;;30.56;27.99;99926.84;4981487;28;20038;-86